createdAt,value
2018-12-23T00:00:53.510Z,96.84
2018-12-23T00:01:53.530Z,97.22
2018-12-23T00:02:53.554Z,96.75
2018-12-23T00:03:53.596Z,97.13
2018-12-23T00:04:53.593Z,97.80
2018-12-23T00:05:53.597Z,96.94
2018-12-23T00:06:53.610Z,96.17
2018-12-23T00:07:53.628Z,96.56
2018-12-23T00:08:53.654Z,96.94
2018-12-23T00:09:53.742Z,96.56
2018-12-23T00:10:53.694Z,96.75
2018-12-23T00:11:53.712Z,96.37
2018-12-23T00:12:53.721Z,96.66
2018-12-23T00:13:53.748Z,96.37
2018-12-23T00:14:53.761Z,96.17
2018-12-23T00:15:53.769Z,96.94
2018-12-23T00:16:53.778Z,97.51
2018-12-23T00:17:53.822Z,98.18
2018-12-23T00:18:53.822Z,98.51
2018-12-23T00:19:53.829Z,98.61
2018-12-23T00:21:53.877Z,98.47
2018-12-23T00:22:53.883Z,98.27
2018-12-23T00:23:53.899Z,98.42
2018-12-23T00:24:53.915Z,98.70
2018-12-23T00:25:53.937Z,97.66
2018-12-23T00:26:54.009Z,97.71
2018-12-23T00:27:53.968Z,97.17
2018-12-23T00:28:54.073Z,97.51
2018-12-23T00:29:54.003Z,97.71
2018-12-23T00:30:54.088Z,96.80
2018-12-23T00:31:54.049Z,96.75
2018-12-23T00:33:54.073Z,97.13
2018-12-23T00:34:54.091Z,97.03
2018-12-23T00:35:54.110Z,97.08
2018-12-23T00:36:54.123Z,96.66
2018-12-23T00:37:54.253Z,96.37
2018-12-23T00:38:54.165Z,95.98
2018-12-23T00:39:54.178Z,96.27
2018-12-23T00:40:54.185Z,96.46
2018-12-23T00:41:54.239Z,96.46
2018-12-23T00:42:54.227Z,95.89
2018-12-23T00:43:54.353Z,95.79
2018-12-23T00:44:54.255Z,96.08
2018-12-23T00:45:54.412Z,95.79
2018-12-23T00:46:54.385Z,95.61
2018-12-23T00:47:54.306Z,95.41
2018-12-23T00:48:54.332Z,95.65
2018-12-23T00:49:54.351Z,95.03
2018-12-23T00:51:54.382Z,94.79
2018-12-23T00:52:54.394Z,94.65
2018-12-23T00:53:54.420Z,94.65
2018-12-23T00:54:54.436Z,94.74
2018-12-23T00:55:54.448Z,94.60
2018-12-23T00:56:54.468Z,94.65
2018-12-23T00:57:54.476Z,94.56
2018-12-23T00:58:54.505Z,94.60
2018-12-23T00:59:54.525Z,94.60
2018-12-23T01:00:54.533Z,94.27
2018-12-23T01:01:54.562Z,94.32
2018-12-23T01:02:54.565Z,94.22
2018-12-23T01:04:54.597Z,94.41
2018-12-23T01:05:54.688Z,93.65
2018-12-23T01:06:54.646Z,94.12
2018-12-23T01:07:54.658Z,93.70
2018-12-23T01:08:54.667Z,93.36
2018-12-23T01:09:54.685Z,93.70
2018-12-23T01:10:54.705Z,92.88
2018-12-23T01:11:54.745Z,92.93
2018-12-23T01:12:54.744Z,93.46
2018-12-23T01:13:54.886Z,93.36
2018-12-23T01:14:54.765Z,93.55
2018-12-23T01:15:54.786Z,93.27
2018-12-23T01:16:54.796Z,93.55
2018-12-23T01:17:55.155Z,93.36
2018-12-23T01:18:54.958Z,92.60
2018-12-23T01:19:54.858Z,93.65
2018-12-23T01:20:54.869Z,93.08
2018-12-23T01:21:54.886Z,93.65
2018-12-23T01:22:54.904Z,93.27
2018-12-23T01:23:54.928Z,93.36
2018-12-23T01:24:54.942Z,93.46
2018-12-23T01:25:55.084Z,92.88
2018-12-23T01:26:54.973Z,92.98
2018-12-23T01:27:54.990Z,92.98
2018-12-23T01:28:55.004Z,93.27
2018-12-23T01:29:55.049Z,92.79
2018-12-23T01:30:55.041Z,92.88
2018-12-23T01:31:55.054Z,92.88
2018-12-23T01:32:55.073Z,92.79
2018-12-23T01:33:55.179Z,92.60
2018-12-23T01:34:55.107Z,92.69
2018-12-23T01:35:55.171Z,92.98
2018-12-23T01:36:55.140Z,92.69
2018-12-23T01:37:55.159Z,92.88
2018-12-23T01:38:55.180Z,92.03
2018-12-23T01:39:55.191Z,92.22
2018-12-23T01:40:55.230Z,92.41
2018-12-23T01:41:55.267Z,92.60
2018-12-23T01:42:55.242Z,92.98
2018-12-23T01:43:55.255Z,92.26
2018-12-23T01:44:55.274Z,92.12
2018-12-23T01:45:55.290Z,92.03
2018-12-23T01:46:55.375Z,92.50
2018-12-23T01:47:55.325Z,91.83
2018-12-23T01:48:55.354Z,92.32
2018-12-23T01:49:55.372Z,92.22
2018-12-23T01:50:55.374Z,92.32
2018-12-23T01:51:55.409Z,92.41
2018-12-23T01:52:55.422Z,92.60
2018-12-23T01:53:55.426Z,92.50
2018-12-23T01:54:55.454Z,92.55
2018-12-23T01:55:55.474Z,92.12
2018-12-23T01:56:55.477Z,92.12
2018-12-23T01:57:55.501Z,92.03
2018-12-23T02:00:55.553Z,92.50
2018-12-23T02:01:55.574Z,92.50
2018-12-23T02:02:55.581Z,92.32
2018-12-23T02:03:55.629Z,92.12
2018-12-23T02:04:55.621Z,92.32
2018-12-23T02:05:55.629Z,92.12
2018-12-23T02:06:55.657Z,92.22
2018-12-23T02:07:55.665Z,92.32
2018-12-23T02:08:55.680Z,92.32
2018-12-23T02:09:55.711Z,92.22
2018-12-23T02:10:55.761Z,92.03
2018-12-23T02:11:55.733Z,92.32
2018-12-23T02:12:55.751Z,92.50
2018-12-23T02:13:55.759Z,92.69
2018-12-23T02:14:55.815Z,93.08
2018-12-23T02:15:55.798Z,93.08
2018-12-23T02:16:55.812Z,92.98
2018-12-23T02:17:55.843Z,92.88
2018-12-23T02:18:55.862Z,92.32
2018-12-23T02:19:55.872Z,92.50
2018-12-23T02:21:55.904Z,92.32
2018-12-23T02:22:55.913Z,92.12
2018-12-23T02:23:55.935Z,92.32
2018-12-23T02:24:55.947Z,92.12
2018-12-23T02:25:55.966Z,92.41
2018-12-23T02:26:55.978Z,91.74
2018-12-23T02:27:56.015Z,92.50
2018-12-23T02:28:56.034Z,92.12
2018-12-23T02:29:56.043Z,92.32
2018-12-23T02:30:56.074Z,92.60
2018-12-23T02:31:56.091Z,92.50
2018-12-23T02:32:56.083Z,92.88
2018-12-23T02:33:56.125Z,92.41
2018-12-23T02:34:56.154Z,92.69
2018-12-23T02:35:56.163Z,92.12
2018-12-23T02:36:56.158Z,92.88
2018-12-23T02:37:56.173Z,92.46
2018-12-23T02:38:57.614Z,92.50
2018-12-23T02:39:56.237Z,92.98
2018-12-23T02:40:56.223Z,93.27
2018-12-23T02:41:56.259Z,92.88
2018-12-23T02:42:56.251Z,93.84
2018-12-23T02:43:56.283Z,94.12
2018-12-23T02:44:56.290Z,93.93
2018-12-23T02:45:56.303Z,94.32
2018-12-23T02:47:56.366Z,94.12
2018-12-23T02:48:56.349Z,94.12
2018-12-23T02:49:56.388Z,93.55
2018-12-23T02:50:56.401Z,94.12
2018-12-23T02:51:56.418Z,94.60
2018-12-23T02:52:56.445Z,94.79
2018-12-23T02:53:56.433Z,94.51
2018-12-23T02:54:56.451Z,94.98
2018-12-23T02:55:56.474Z,94.89
2018-12-23T02:56:56.489Z,95.17
2018-12-23T02:57:56.502Z,95.94
2018-12-23T02:58:56.529Z,95.84
2018-12-23T02:59:56.555Z,95.46
2018-12-23T03:00:56.555Z,95.75
2018-12-23T03:01:56.576Z,94.70
2018-12-23T03:02:56.591Z,94.79
2018-12-23T03:03:56.612Z,94.60
2018-12-23T03:04:56.618Z,95.27
2018-12-23T03:06:05.495Z,95.27
2018-12-23T03:06:56.661Z,95.46
2018-12-23T03:07:56.673Z,95.46
2018-12-23T03:08:56.692Z,95.37
2018-12-23T03:09:56.715Z,95.75
2018-12-23T03:11:56.739Z,96.41
2018-12-23T03:12:56.896Z,96.03
2018-12-23T03:13:56.797Z,95.84
2018-12-23T03:14:56.792Z,96.03
2018-12-23T03:15:56.818Z,95.27
2018-12-23T03:16:56.816Z,95.37
2018-12-23T03:17:56.837Z,95.27
2018-12-23T03:18:56.864Z,95.17
2018-12-23T03:19:56.874Z,94.79
2018-12-23T03:20:56.912Z,95.27
2018-12-23T03:21:56.912Z,95.27
2018-12-23T03:22:56.946Z,95.37
2018-12-23T03:23:56.956Z,95.94
2018-12-23T03:24:56.957Z,96.13
2018-12-23T03:25:56.979Z,95.27
2018-12-23T03:26:57.005Z,95.56
2018-12-23T03:27:57.020Z,95.27
2018-12-23T03:28:57.102Z,95.27
2018-12-23T03:29:57.044Z,95.17
2018-12-23T03:30:57.058Z,94.70
2018-12-23T03:31:57.091Z,94.70
2018-12-23T03:32:57.087Z,95.08
2018-12-23T03:33:57.157Z,95.17
2018-12-23T03:34:57.129Z,95.56
2018-12-23T03:35:57.168Z,95.46
2018-12-23T03:36:57.164Z,95.65
2018-12-23T03:37:57.180Z,95.17
2018-12-23T03:38:57.184Z,95.17
2018-12-23T03:40:57.249Z,95.37
2018-12-23T03:41:57.237Z,95.46
2018-12-23T03:42:57.358Z,95.46
2018-12-23T03:43:57.278Z,95.17
2018-12-23T03:44:57.303Z,94.98
2018-12-23T03:45:57.312Z,95.27
2018-12-23T03:46:57.316Z,95.37
2018-12-23T03:47:57.355Z,95.46
2018-12-23T03:48:57.352Z,96.13
2018-12-23T03:49:57.408Z,95.94
2018-12-23T03:50:57.389Z,95.46
2018-12-23T03:51:57.402Z,95.56
2018-12-23T03:52:57.437Z,95.17
2018-12-23T03:53:57.445Z,95.94
2018-12-23T03:55:18.471Z,95.75
2018-12-23T03:55:57.479Z,95.37
2018-12-23T03:56:57.487Z,95.84
2018-12-23T03:58:57.535Z,95.84
2018-12-23T03:59:57.536Z,95.65
2018-12-23T04:00:57.561Z,95.94
2018-12-23T04:01:57.571Z,95.84
2018-12-23T04:02:57.685Z,96.13
2018-12-23T04:03:57.615Z,95.84
2018-12-23T04:04:57.615Z,95.17
2018-12-23T04:05:57.633Z,95.65
2018-12-23T04:06:57.665Z,96.51
2018-12-23T04:07:57.669Z,95.27
2018-12-23T04:08:57.755Z,95.84
2018-12-23T04:10:57.727Z,95.27
2018-12-23T04:11:57.736Z,95.56
2018-12-23T04:12:57.754Z,96.32
2018-12-23T04:13:57.779Z,95.17
2018-12-23T04:14:57.793Z,95.56
2018-12-23T04:15:57.811Z,95.46
2018-12-23T04:17:57.840Z,96.08
2018-12-23T04:18:57.851Z,95.51
2018-12-23T04:19:57.869Z,95.61
2018-12-23T04:20:57.890Z,96.03
2018-12-23T04:21:57.906Z,95.84
2018-12-23T04:22:57.924Z,95.75
2018-12-23T04:23:57.969Z,95.70
2018-12-23T04:24:57.967Z,95.79
2018-12-23T04:25:57.974Z,95.61
2018-12-23T04:26:57.990Z,95.51
2018-12-23T04:27:58.025Z,96.03
2018-12-23T04:28:58.075Z,95.79
2018-12-23T04:29:58.046Z,96.03
2018-12-23T04:30:58.055Z,95.84
2018-12-23T04:31:58.071Z,96.13
2018-12-23T04:32:58.108Z,95.56
2018-12-23T04:33:58.102Z,95.37
2018-12-23T04:34:58.141Z,95.08
2018-12-23T04:35:58.148Z,95.56
2018-12-23T04:36:58.153Z,95.46
2018-12-23T04:37:58.182Z,95.56
2018-12-23T04:38:58.200Z,95.46
2018-12-23T04:39:58.209Z,95.37
2018-12-23T04:40:58.226Z,95.75
2018-12-23T04:42:58.258Z,95.08
2018-12-23T04:43:58.266Z,95.08
2018-12-23T04:44:58.283Z,94.79
2018-12-23T04:45:58.321Z,94.79
2018-12-23T04:46:58.325Z,94.89
2018-12-23T04:47:58.340Z,94.51
2018-12-23T04:48:58.348Z,94.51
2018-12-23T04:49:58.447Z,95.37
2018-12-23T04:50:58.400Z,95.27
2018-12-23T04:51:58.398Z,95.22
2018-12-23T04:52:58.420Z,95.27
2018-12-23T04:53:58.470Z,95.56
2018-12-23T04:54:58.472Z,94.93
2018-12-23T04:55:58.470Z,95.22
2018-12-23T04:56:58.505Z,95.70
2018-12-23T04:57:58.511Z,95.37
2018-12-23T04:58:58.516Z,94.41
2018-12-23T04:59:58.561Z,94.74
2018-12-23T05:00:58.560Z,94.79
2018-12-23T05:01:58.566Z,94.60
2018-12-23T05:02:58.588Z,94.89
2018-12-23T05:03:58.603Z,94.89
2018-12-23T05:04:58.638Z,94.60
2018-12-23T05:05:58.632Z,94.70
2018-12-23T05:06:58.671Z,94.79
2018-12-23T05:07:58.686Z,94.79
2018-12-23T05:08:58.693Z,94.60
2018-12-23T05:09:59.092Z,94.79
2018-12-23T05:10:58.747Z,94.79
2018-12-23T05:11:58.738Z,94.79
2018-12-23T05:12:58.749Z,94.98
2018-12-23T05:13:58.764Z,94.89
2018-12-23T05:14:58.786Z,94.79
2018-12-23T05:15:58.810Z,94.89
2018-12-23T05:16:58.858Z,94.79
2018-12-23T05:17:58.849Z,94.98
2018-12-23T05:18:58.852Z,94.79
2018-12-23T05:19:58.863Z,94.70
2018-12-23T05:20:58.881Z,94.70
2018-12-23T05:21:58.921Z,94.22
2018-12-23T05:22:58.924Z,94.89
2018-12-23T05:23:58.930Z,94.70
2018-12-23T05:24:58.947Z,94.22
2018-12-23T05:25:58.962Z,94.70
2018-12-23T05:26:58.981Z,94.41
2018-12-23T05:27:58.994Z,94.70
2018-12-23T05:28:59.030Z,94.79
2018-12-23T05:29:59.071Z,94.98
2018-12-23T05:30:59.079Z,94.60
2018-12-23T05:31:59.064Z,94.60
2018-12-23T05:32:59.095Z,94.79
2018-12-23T05:33:59.100Z,94.51
2018-12-23T05:34:59.130Z,94.70
2018-12-23T05:35:59.136Z,94.98
2018-12-23T05:36:59.318Z,95.12
2018-12-23T05:37:59.159Z,95.12
2018-12-23T05:38:59.184Z,95.46
2018-12-23T05:39:59.196Z,95.12
2018-12-23T05:40:59.227Z,95.03
2018-12-23T05:41:59.236Z,94.98
2018-12-23T05:42:59.265Z,94.84
2018-12-23T05:43:59.283Z,94.70
2018-12-23T05:44:59.276Z,94.89
2018-12-23T05:45:59.361Z,94.98
2018-12-23T05:46:59.311Z,94.79
2018-12-23T05:47:59.332Z,94.89
2018-12-23T05:48:59.419Z,94.79
2018-12-23T05:49:59.491Z,94.79
2018-12-23T05:50:59.434Z,94.70
2018-12-23T05:51:59.433Z,94.79
2018-12-23T05:52:59.411Z,94.51
2018-12-23T05:53:59.432Z,94.41
2018-12-23T05:54:59.459Z,94.60
2018-12-23T05:55:59.467Z,94.03
2018-12-23T05:56:59.541Z,94.12
2018-12-23T05:57:59.503Z,94.12
2018-12-23T05:58:59.505Z,94.22
2018-12-23T06:00:59.543Z,93.46
2018-12-23T06:01:59.739Z,94.22
2018-12-23T06:02:59.632Z,94.32
2018-12-23T06:03:59.599Z,93.55
2018-12-23T06:04:59.609Z,94.32
2018-12-23T06:05:59.630Z,94.22
2018-12-23T06:07:01.093Z,94.03
2018-12-23T06:08:59.845Z,94.32
2018-12-23T06:09:59.701Z,94.51
2018-12-23T06:10:59.706Z,94.70
2018-12-23T06:11:59.727Z,94.22
2018-12-23T06:12:59.768Z,94.60
2018-12-23T06:13:59.795Z,94.79
2018-12-23T06:14:59.776Z,95.27
2018-12-23T06:15:59.808Z,95.46
2018-12-23T06:16:59.820Z,95.27
2018-12-23T06:17:59.828Z,95.84
2018-12-23T06:18:59.854Z,95.51
2018-12-23T06:19:59.859Z,95.70
2018-12-23T06:20:59.874Z,96.03
2018-12-23T06:21:59.891Z,95.41
2018-12-23T06:23:00.032Z,96.08
2018-12-23T06:23:59.924Z,95.79
2018-12-23T06:25:00.265Z,95.89
2018-12-23T06:25:59.964Z,96.46
2018-12-23T06:26:59.999Z,96.65
2018-12-23T06:27:59.997Z,96.27
2018-12-23T06:29:00.024Z,96.36
2018-12-23T06:30:00.032Z,96.32
2018-12-23T06:31:00.043Z,95.84
2018-12-23T06:32:00.053Z,96.32
2018-12-23T06:33:00.075Z,96.32
2018-12-23T06:34:00.098Z,96.61
2018-12-23T06:35:00.157Z,96.65
2018-12-23T06:36:00.174Z,96.13
2018-12-23T06:37:00.140Z,96.22
2018-12-23T06:38:00.174Z,95.37
2018-12-23T06:39:00.178Z,96.03
2018-12-23T06:40:00.196Z,95.56
2018-12-23T06:41:00.212Z,95.17
2018-12-23T06:42:00.269Z,95.56
2018-12-23T06:43:00.370Z,95.94
2018-12-23T06:44:00.257Z,96.41
2018-12-23T06:45:00.741Z,95.94
2018-12-23T06:47:00.761Z,95.84
2018-12-23T06:48:00.324Z,95.56
2018-12-23T06:49:00.798Z,95.94
2018-12-23T06:50:00.828Z,95.94
2018-12-23T06:51:00.375Z,95.98
2018-12-23T06:52:00.388Z,96.03
2018-12-23T06:53:00.837Z,95.84
2018-12-23T06:54:00.818Z,95.84
2018-12-23T06:55:00.861Z,96.22
2018-12-23T06:56:00.457Z,96.51
2018-12-23T06:57:00.499Z,95.65
2018-12-23T06:58:00.490Z,96.22
2018-12-23T06:59:00.524Z,95.46
2018-12-23T07:00:00.530Z,95.75
2018-12-23T07:01:00.543Z,95.84
2018-12-23T07:02:00.883Z,96.03
2018-12-23T07:03:00.875Z,95.65
2018-12-23T07:04:00.926Z,96.41
2018-12-23T07:05:00.669Z,95.84
2018-12-23T07:06:00.951Z,95.56
2018-12-23T07:07:00.643Z,95.56
2018-12-23T07:08:00.655Z,95.84
2018-12-23T07:09:01.074Z,95.56
2018-12-23T07:10:00.720Z,95.56
2018-12-23T07:11:00.729Z,95.65
2018-12-23T07:12:01.002Z,96.03
2018-12-23T07:13:00.801Z,95.37
2018-12-23T07:14:00.876Z,95.56
2018-12-23T07:15:00.793Z,96.13
2018-12-23T07:16:00.794Z,95.46
2018-12-23T07:17:00.823Z,95.37
2018-12-23T07:18:00.835Z,95.84
2018-12-23T07:19:00.838Z,95.98
2018-12-23T07:20:00.948Z,96.03
2018-12-23T07:21:00.899Z,95.84
2018-12-23T07:22:00.981Z,95.46
2018-12-23T07:23:01.074Z,96.13
2018-12-23T07:24:01.066Z,95.75
2018-12-23T07:25:00.957Z,95.37
2018-12-23T07:26:00.976Z,96.03
2018-12-23T07:27:00.995Z,95.37
2018-12-23T07:28:01.265Z,95.94
2018-12-23T07:29:01.046Z,95.51
2018-12-23T07:30:01.021Z,95.79
2018-12-23T07:31:01.290Z,95.56
2018-12-23T07:32:01.070Z,95.75
2018-12-23T07:33:01.289Z,95.84
2018-12-23T07:34:01.170Z,95.46
2018-12-23T07:35:01.303Z,95.46
2018-12-23T07:36:01.116Z,95.75
2018-12-23T07:37:01.367Z,95.56
2018-12-23T07:39:01.175Z,95.17
2018-12-23T07:40:01.227Z,95.17
2018-12-23T07:41:01.201Z,95.27
2018-12-23T07:42:01.219Z,95.08
2018-12-23T07:44:01.253Z,94.70
2018-12-23T07:45:01.280Z,94.70
2018-12-23T07:46:01.288Z,94.79
2018-12-23T07:47:01.308Z,94.98
2018-12-23T07:48:01.325Z,94.60
2018-12-23T07:49:01.355Z,94.89
2018-12-23T07:50:01.377Z,94.79
2018-12-23T07:51:01.510Z,94.79
2018-12-23T07:52:01.385Z,94.89
2018-12-23T07:53:01.413Z,94.70
2018-12-23T07:54:01.583Z,94.79
2018-12-23T07:55:01.449Z,94.89
2018-12-23T07:56:01.489Z,94.70
2018-12-23T07:57:01.474Z,94.74
2018-12-23T07:58:01.492Z,95.03
2018-12-23T07:59:01.562Z,95.32
2018-12-23T08:00:01.535Z,95.32
2018-12-23T08:01:01.555Z,94.74
2018-12-23T08:02:01.660Z,94.74
2018-12-23T08:03:01.662Z,94.79
2018-12-23T08:04:01.586Z,94.84
2018-12-23T08:05:01.617Z,94.74
2018-12-23T08:06:01.615Z,94.84
2018-12-23T08:07:01.641Z,94.70
2018-12-23T08:08:01.715Z,94.51
2018-12-23T08:09:01.671Z,94.74
2018-12-23T08:10:01.813Z,94.89
2018-12-23T08:11:01.698Z,94.60
2018-12-23T08:12:01.715Z,94.03
2018-12-23T08:13:01.738Z,94.32
2018-12-23T08:14:01.746Z,94.41
2018-12-23T08:15:01.789Z,94.12
2018-12-23T08:16:01.795Z,93.84
2018-12-23T08:18:01.818Z,93.74
2018-12-23T08:19:01.838Z,93.36
2018-12-23T08:20:01.848Z,93.55
2018-12-23T08:21:01.955Z,93.84
2018-12-23T08:22:01.883Z,93.93
2018-12-23T08:23:01.920Z,93.55
2018-12-23T08:24:01.913Z,93.55
2018-12-23T08:25:01.934Z,94.32
2018-12-23T08:27:01.965Z,93.46
2018-12-23T08:28:01.981Z,93.36
2018-12-23T08:29:02.003Z,92.88
2018-12-23T08:30:02.014Z,93.46
2018-12-23T08:31:02.183Z,93.08
2018-12-23T08:32:02.086Z,93.74
2018-12-23T08:33:02.067Z,93.74
2018-12-23T08:34:02.101Z,93.36
2018-12-23T08:35:02.096Z,93.70
2018-12-23T08:36:02.142Z,93.65
2018-12-23T08:37:02.177Z,93.55
2018-12-23T08:38:02.163Z,93.65
2018-12-23T08:39:02.181Z,93.51
2018-12-23T08:40:02.205Z,93.17
2018-12-23T08:41:02.270Z,93.70
2018-12-23T08:42:02.227Z,93.41
2018-12-23T08:43:02.243Z,93.32
2018-12-23T08:44:02.246Z,93.55
2018-12-23T08:45:02.276Z,93.22
2018-12-23T08:46:02.296Z,93.55
2018-12-23T08:47:02.302Z,93.74
2018-12-23T08:48:02.310Z,93.08
2018-12-23T08:49:02.346Z,92.98
2018-12-23T08:50:02.355Z,92.88
2018-12-23T08:51:02.397Z,92.60
2018-12-23T08:52:02.389Z,92.50
2018-12-23T08:53:02.398Z,92.60
2018-12-23T08:55:02.433Z,92.12
2018-12-23T08:56:02.451Z,92.12
2018-12-23T08:57:02.475Z,92.32
2018-12-23T08:58:02.479Z,92.12
2018-12-23T08:59:02.496Z,92.50
2018-12-23T09:00:02.516Z,92.22
2018-12-23T09:01:02.527Z,91.83
2018-12-23T09:02:02.574Z,91.55
2018-12-23T09:03:02.571Z,92.12
2018-12-23T09:04:02.602Z,91.74
2018-12-23T09:05:02.608Z,92.12
2018-12-23T09:06:02.622Z,91.93
2018-12-23T09:07:02.686Z,91.93
2018-12-23T09:08:02.653Z,91.07
2018-12-23T09:09:02.658Z,91.46
2018-12-23T09:10:02.698Z,91.36
2018-12-23T09:11:02.700Z,91.46
2018-12-23T09:12:02.711Z,91.27
2018-12-23T09:13:02.736Z,91.36
2018-12-23T09:14:02.749Z,90.98
2018-12-23T09:15:02.785Z,91.36
2018-12-23T09:16:02.775Z,91.36
2018-12-23T09:17:02.810Z,91.17
2018-12-23T09:18:02.809Z,91.27
2018-12-23T09:19:02.829Z,91.55
2018-12-23T09:20:02.855Z,90.98
2018-12-23T09:21:02.859Z,91.17
2018-12-23T09:22:02.905Z,90.88
2018-12-23T09:23:02.894Z,90.50
2018-12-23T09:24:02.924Z,90.98
2018-12-23T09:25:02.927Z,91.07
2018-12-23T09:26:02.950Z,90.50
2018-12-23T09:27:02.967Z,90.59
2018-12-23T09:28:03.017Z,90.12
2018-12-23T09:29:03.005Z,90.12
2018-12-23T09:30:03.008Z,90.50
2018-12-23T09:31:03.034Z,90.22
2018-12-23T09:32:03.047Z,90.12
2018-12-23T09:33:03.064Z,90.31
2018-12-23T09:35:03.102Z,89.02
2018-12-23T09:36:03.123Z,88.88
2018-12-23T09:37:03.127Z,89.07
2018-12-23T09:38:03.146Z,89.93
2018-12-23T09:39:03.161Z,90.22
2018-12-23T09:40:03.212Z,89.64
2018-12-23T09:41:03.193Z,89.64
2018-12-23T09:42:03.216Z,89.64
2018-12-23T09:43:03.227Z,89.93
2018-12-23T09:44:03.259Z,89.83
2018-12-23T09:45:03.265Z,89.93
2018-12-23T09:46:03.277Z,89.74
2018-12-23T09:47:03.292Z,89.83
2018-12-23T09:48:03.406Z,89.74
2018-12-23T09:49:03.328Z,89.83
2018-12-23T09:50:03.343Z,89.88
2018-12-23T09:51:03.374Z,89.26
2018-12-23T09:52:03.377Z,89.26
2018-12-23T09:53:03.394Z,89.40
2018-12-23T09:54:03.406Z,89.07
2018-12-23T09:55:03.433Z,89.12
2018-12-23T09:56:03.437Z,89.07
2018-12-23T09:57:03.461Z,88.92
2018-12-23T09:58:03.610Z,88.98
2018-12-23T09:59:03.506Z,88.78
2018-12-23T10:00:03.513Z,88.92
2018-12-23T10:01:24.543Z,89.17
2018-12-23T10:02:03.587Z,89.07
2018-12-23T10:03:03.576Z,89.07
2018-12-23T10:04:03.579Z,88.88
2018-12-23T10:05:03.612Z,89.17
2018-12-23T10:06:03.612Z,89.12
2018-12-23T10:07:03.625Z,89.26
2018-12-23T10:09:03.662Z,89.31
2018-12-23T10:10:03.688Z,89.36
2018-12-23T10:11:03.699Z,89.50
2018-12-23T10:12:03.722Z,89.74
2018-12-23T10:13:03.861Z,90.03
2018-12-23T10:14:03.741Z,89.78
2018-12-23T10:15:03.770Z,89.93
2018-12-23T10:17:03.794Z,90.17
2018-12-23T10:18:03.811Z,89.97
2018-12-23T10:19:03.844Z,89.88
2018-12-23T10:20:03.848Z,89.50
2018-12-23T10:21:03.862Z,88.92
2018-12-23T10:22:03.884Z,90.07
2018-12-23T10:23:03.904Z,90.03
2018-12-23T10:24:03.918Z,90.36
2018-12-23T10:25:03.944Z,90.36
2018-12-23T10:26:04.079Z,90.12
2018-12-23T10:27:03.972Z,90.12
2018-12-23T10:28:03.979Z,90.55
2018-12-23T10:29:03.996Z,91.12
2018-12-23T10:30:04.019Z,90.50
2018-12-23T10:31:04.031Z,90.17
2018-12-23T10:33:04.079Z,90.36
2018-12-23T10:34:04.095Z,90.83
2018-12-23T10:35:04.111Z,91.02
2018-12-23T10:37:04.139Z,90.17
2018-12-23T10:38:04.149Z,90.31
2018-12-23T10:39:04.173Z,90.12
2018-12-23T10:40:04.197Z,90.45
2018-12-23T10:41:04.244Z,89.93
2018-12-23T10:42:04.218Z,90.45
2018-12-23T10:43:04.296Z,90.55
2018-12-23T10:44:04.255Z,90.07
2018-12-23T10:45:04.273Z,90.55
2018-12-23T10:46:04.320Z,89.88
2018-12-23T10:47:04.302Z,90.41
2018-12-23T10:48:04.329Z,90.17
2018-12-23T10:49:04.337Z,89.69
2018-12-23T10:50:04.379Z,89.59
2018-12-23T10:51:04.387Z,89.78
2018-12-23T10:52:04.388Z,89.59
2018-12-23T10:53:04.399Z,89.69
2018-12-23T10:54:04.510Z,89.69
2018-12-23T10:55:04.436Z,89.78
2018-12-23T10:56:04.468Z,89.31
2018-12-23T10:57:04.541Z,89.12
2018-12-23T10:59:04.504Z,88.92
2018-12-23T11:00:04.524Z,89.12
2018-12-23T11:01:04.534Z,89.12
2018-12-23T11:02:04.558Z,89.97
2018-12-23T11:03:04.569Z,90.36
2018-12-23T11:04:04.590Z,89.88
2018-12-23T11:05:04.606Z,89.69
2018-12-23T11:06:04.631Z,89.88
2018-12-23T11:07:04.642Z,89.69
2018-12-23T11:09:04.673Z,89.40
2018-12-23T11:10:04.686Z,89.78
2018-12-23T11:11:04.804Z,89.97
2018-12-23T11:12:04.720Z,89.78
2018-12-23T11:13:04.759Z,89.21
2018-12-23T11:14:04.766Z,89.02
2018-12-23T11:15:04.785Z,89.50
2018-12-23T11:16:04.795Z,90.31
2018-12-23T11:17:04.818Z,90.07
2018-12-23T11:18:04.824Z,90.17
2018-12-23T11:19:04.841Z,90.26
2018-12-23T11:20:04.870Z,90.45
2018-12-23T11:21:04.876Z,90.26
2018-12-23T11:22:04.922Z,89.78
2018-12-23T11:23:04.908Z,90.36
2018-12-23T11:24:04.924Z,90.64
2018-12-23T11:25:04.951Z,91.31
2018-12-23T11:26:04.959Z,91.02
2018-12-23T11:27:04.977Z,91.69
2018-12-23T11:28:04.994Z,91.21
2018-12-23T11:29:05.060Z,91.41
2018-12-23T11:30:05.026Z,91.36
2018-12-23T11:31:05.054Z,91.31
2018-12-23T11:32:05.090Z,91.50
2018-12-23T11:33:05.093Z,91.21
2018-12-23T11:34:05.150Z,91.31
2018-12-23T11:35:05.130Z,91.69
2018-12-23T11:37:05.157Z,91.78
2018-12-23T11:38:05.169Z,92.07
2018-12-23T11:39:05.222Z,91.98
2018-12-23T11:40:05.202Z,91.98
2018-12-23T11:41:05.218Z,92.07
2018-12-23T11:42:05.253Z,92.69
2018-12-23T11:43:05.241Z,92.83
2018-12-23T11:44:05.271Z,93.12
2018-12-23T11:45:05.279Z,93.02
2018-12-23T11:46:05.296Z,93.12
2018-12-23T11:47:05.315Z,92.74
2018-12-23T11:48:05.332Z,93.02
2018-12-23T11:49:05.351Z,93.79
2018-12-23T11:50:05.389Z,94.22
2018-12-23T11:51:06.780Z,94.70
2018-12-23T11:52:05.452Z,94.74
2018-12-23T11:53:05.409Z,94.65
2018-12-23T11:54:05.432Z,94.93
2018-12-23T11:55:05.472Z,94.93
2018-12-23T11:56:05.461Z,95.51
2018-12-23T11:57:05.479Z,95.27
2018-12-23T11:58:05.501Z,95.46
2018-12-23T11:59:05.520Z,95.79
2018-12-23T12:00:05.548Z,95.79
2018-12-23T12:01:05.563Z,95.22
2018-12-23T12:02:05.563Z,96.03
2018-12-23T12:03:05.606Z,95.65
2018-12-23T12:04:05.607Z,96.32
2018-12-23T12:05:05.623Z,96.75
2018-12-23T12:06:05.631Z,97.17
2018-12-23T12:07:05.667Z,97.27
2018-12-23T12:08:05.659Z,96.80
2018-12-23T12:09:07.021Z,96.84
2018-12-23T12:10:05.696Z,97.56
2018-12-23T12:11:05.722Z,98.03
2018-12-23T12:12:05.743Z,98.42
2018-12-23T12:13:05.760Z,98.70
2018-12-23T12:14:05.806Z,98.99
2018-12-23T12:15:05.792Z,99.18
2018-12-23T12:16:05.805Z,98.75
2018-12-23T12:17:05.815Z,97.89
2018-12-23T12:18:05.897Z,98.13
2018-12-23T12:19:05.849Z,98.37
2018-12-23T12:20:05.911Z,98.37
2018-12-23T12:21:05.909Z,98.70
2018-12-23T12:22:05.902Z,98.51
2018-12-23T12:23:05.916Z,98.03
2018-12-23T12:24:05.932Z,98.03
2018-12-23T12:25:05.948Z,98.42
2018-12-23T12:26:05.976Z,98.99
2018-12-23T12:27:05.995Z,98.80
2018-12-23T12:28:06.010Z,98.51
2018-12-23T12:29:06.013Z,98.08
2018-12-23T12:30:06.037Z,98.51
2018-12-23T12:31:06.047Z,98.32
2018-12-23T12:32:06.067Z,98.51
2018-12-23T12:33:06.100Z,99.08
2018-12-23T12:34:06.124Z,99.18
2018-12-23T12:35:06.117Z,99.66
2018-12-23T12:36:06.148Z,99.66
2018-12-23T12:38:06.175Z,99.66
2018-12-23T12:39:06.183Z,99.99
2018-12-23T12:40:06.215Z,99.99
2018-12-23T12:41:06.218Z,99.99
2018-12-23T12:42:06.237Z,99.99
2018-12-23T12:43:06.261Z,99.99
2018-12-23T12:44:06.284Z,99.99
2018-12-23T12:46:06.323Z,99.99
2018-12-23T12:47:06.325Z,99.99
2018-12-23T12:48:06.421Z,99.99
2018-12-23T12:49:06.358Z,99.99
2018-12-23T12:50:06.375Z,99.99
2018-12-23T12:51:06.420Z,99.99
2018-12-23T12:52:06.408Z,99.99
2018-12-23T12:53:06.427Z,99.99
2018-12-23T12:54:06.439Z,99.99
2018-12-23T12:55:06.462Z,99.99
2018-12-23T12:56:06.474Z,99.99
2018-12-23T12:57:06.508Z,99.99
2018-12-23T12:58:06.505Z,99.99
2018-12-23T12:59:06.529Z,99.99
2018-12-23T13:00:06.538Z,99.99
2018-12-23T13:01:06.572Z,99.37
2018-12-23T13:02:06.576Z,99.99
2018-12-23T13:04:06.609Z,99.99
2018-12-23T13:05:06.625Z,99.99
2018-12-23T13:06:06.644Z,99.99
2018-12-23T13:07:06.655Z,99.99
2018-12-23T13:09:06.689Z,99.99
2018-12-23T13:10:06.703Z,99.99
2018-12-23T13:11:06.719Z,99.99
2018-12-23T13:12:06.736Z,99.99
2018-12-23T13:13:06.755Z,99.99
2018-12-23T13:14:06.771Z,99.99
2018-12-23T13:15:06.780Z,99.99
2018-12-23T13:16:06.804Z,99.99
2018-12-23T13:17:06.827Z,99.99
2018-12-23T13:18:06.841Z,99.99
2018-12-23T13:19:06.859Z,99.99
2018-12-23T13:20:06.869Z,99.99
2018-12-23T13:21:06.884Z,99.99
2018-12-23T13:22:06.904Z,99.99
2018-12-23T13:23:06.920Z,99.99
2018-12-23T13:24:06.932Z,99.99
2018-12-23T13:25:06.960Z,99.99
2018-12-23T13:26:06.971Z,99.99
2018-12-23T13:27:07.015Z,99.99